Terminal Aerodrome Forecast
Issued by NWS

Home | Current Version | Previous Version | Text Only | Print | Product List | Glossary On
Versions: 1 2 3 4 5 6 7 8 9 10 11 12 13 14 15 16 17 18 19
000
FTAK31 PANC 241734
TAFAAQ
TAF
PAAQ 241734Z 2418/2518 VRB05KT P6SM VCSH SCT045 BKN070
     FM242100 14008KT P6SM -SHRA BKN045
     FM250600 12005KT P6SM VCSH SCT035 BKN070
     FM251400 36004KT P6SM -SHRA OVC035=

USA.gov is the U.S. government's official web portal to all federal, state and local government web resources and services.